»·PEaware :: N35CB KLAS-KABQ

N35CB :: KLAS-KABQ

FLIGHT INFORMATION

Flight Status: Arrived
Operator: Privately registered:
United States
More flights under this callsign
Pilot: Adam S. (8156)
Aircraft: CESSNA 340
(C340)
More flights by this aircraft type
Origin: KLAS McCarran Intl
United States
Destination: KABQ Albuquerque Intl Sunport
United States
More flights between these airports :: More routes between these airports
Route: +
File this flight plan on PilotEdge
Remarks:
Altitude:
(Current/Filed)
10,500ft
Speed:
(Current/Filed)
200kts
Departed: 17-Jan-16 06:35 PM
Arrived: 17-Jan-16 08:46 PM
Distance/Time
Traveled:
421nm/2:11
Distance/Time
To Go:
Arrived

Flight Plot

Page will automatically refresh every two minutes.

Flight plan parsing failed; only flown route is shown


Map Options




Map Legend


Flown Route
Filed Route
Departure Airport
Arrival Airport
Navaid (VOR, NDB)
Fix

Horizontal Profiles

Position Reports

Time Latitude Longitude Heading Altitude Ground
Speed
17-Jan-16 17:37 36.084485 -115.169087 145 2145ft 0kts
17-Jan-16 17:38 36.084485 -115.169087 145 2145ft 0kts
17-Jan-16 17:39 36.084485 -115.169087 145 2145ft 0kts
17-Jan-16 17:40 36.084485 -115.169087 145 2145ft 0kts
17-Jan-16 17:41 36.084485 -115.169087 145 2145ft 0kts
17-Jan-16 17:42 36.084485 -115.169087 145 2145ft 0kts
17-Jan-16 17:43 36.084485 -115.169087 145 2145ft 0kts
17-Jan-16 17:44 36.084485 -115.169087 145 2145ft 0kts
17-Jan-16 17:45 36.084485 -115.169087 145 2145ft 0kts
17-Jan-16 17:46 36.084485 -115.169087 145 2145ft 0kts
17-Jan-16 17:47 36.084485 -115.169087 145 2145ft 0kts
17-Jan-16 17:48 36.084485 -115.169087 145 2145ft 0kts
17-Jan-16 17:49 36.084485 -115.169087 145 2145ft 0kts
17-Jan-16 17:50 36.084485 -115.169087 145 2145ft 0kts
17-Jan-16 17:51 36.084485 -115.169087 145 2145ft 0kts
17-Jan-16 17:52 36.084485 -115.169087 145 2145ft 0kts
17-Jan-16 17:53 36.084485 -115.169087 145 2145ft 0kts
17-Jan-16 17:54 36.084485 -115.169087 145 2145ft 0kts
17-Jan-16 17:55 36.084485 -115.169087 145 2145ft 0kts
17-Jan-16 17:56 36.084485 -115.169087 145 2145ft 0kts
17-Jan-16 17:57 36.084485 -115.169087 145 2145ft 0kts
17-Jan-16 17:58 36.084485 -115.169087 145 2145ft 0kts
17-Jan-16 17:59 36.084485 -115.169087 145 2145ft 0kts
17-Jan-16 18:00 36.084485 -115.169087 145 2145ft 0kts
17-Jan-16 18:01 36.084485 -115.169087 145 2145ft 0kts
17-Jan-16 18:02 36.084485 -115.169087 145 2145ft 0kts
17-Jan-16 18:03 36.084485 -115.169087 145 2145ft 0kts
17-Jan-16 18:04 36.084485 -115.169087 145 2145ft 0kts
17-Jan-16 18:05 36.084485 -115.169087 145 2145ft 0kts
17-Jan-16 18:06 36.084485 -115.169087 145 2145ft 0kts
17-Jan-16 18:07 36.084485 -115.169087 145 2145ft 0kts
17-Jan-16 18:08 36.084485 -115.169087 145 2145ft 0kts
17-Jan-16 18:09 36.084485 -115.169087 145 2145ft 0kts
17-Jan-16 18:10 36.084485 -115.169087 145 2145ft 0kts
17-Jan-16 18:11 36.084485 -115.169087 145 2145ft 0kts
17-Jan-16 18:12 36.084485 -115.169087 145 2145ft 0kts
17-Jan-16 18:13 36.084485 -115.169087 145 2145ft 0kts
17-Jan-16 18:14 36.084485 -115.169087 145 2145ft 0kts
17-Jan-16 18:15 36.084485 -115.169087 145 2145ft 0kts
17-Jan-16 18:16 36.084485 -115.169087 145 2145ft 0kts
17-Jan-16 18:17 36.084485 -115.169087 145 2145ft 0kts
17-Jan-16 18:18 36.084485 -115.169087 145 2145ft 0kts
17-Jan-16 18:19 36.084485 -115.169087 145 2145ft 0kts
17-Jan-16 18:20 36.084485 -115.169087 145 2145ft 0kts
17-Jan-16 18:21 36.084485 -115.169087 145 2145ft 0kts
17-Jan-16 18:22 36.084485 -115.169087 145 2145ft 0kts
17-Jan-16 18:23 36.084485 -115.169087 145 2145ft 0kts
17-Jan-16 18:24 36.084485 -115.169087 145 2145ft 0kts
17-Jan-16 18:25 36.083108 -115.168797 203 2145ft 17kts
17-Jan-16 18:26 36.078698 -115.170644 167 2145ft 12kts
17-Jan-16 18:27 36.078155 -115.170016 120 2145ft 0kts
17-Jan-16 18:28 36.078155 -115.170016 120 2145ft 0kts
17-Jan-16 18:29 36.078393 -115.168607 25 2145ft 21kts
17-Jan-16 18:30 36.099880 -115.158141 39 2760ft 95kts
17-Jan-16 18:31 36.114876 -115.130122 61 3557ft 137kts
17-Jan-16 18:32 36.138162 -115.081141 61 3690ft 171kts
17-Jan-16 18:33 36.169266 -115.048758 53 5111ft 140kts
17-Jan-16 18:34 36.152520 -115.013285 128 6103ft 142kts
17-Jan-16 18:35 36.128531 -114.972858 120 7148ft 149kts
17-Jan-16 18:36 36.110751 -114.935493 104 8026ft 152kts
17-Jan-16 18:37 36.099856 -114.884153 101 9074ft 156kts
17-Jan-16 18:38 36.085978 -114.832966 114 10099ft 159kts
17-Jan-16 18:39 36.067036 -114.778856 114 10483ft 190kts
17-Jan-16 18:40 36.045543 -114.715924 112 10473ft 203kts
17-Jan-16 18:41 36.027551 -114.648864 105 10472ft 207kts
17-Jan-16 18:42 36.012272 -114.579921 105 10472ft 208kts
17-Jan-16 18:43 36.012930 -114.514526 24 10474ft 190kts
17-Jan-16 18:44 36.020748 -114.451741 97 10473ft 206kts
17-Jan-16 18:45 36.012709 -114.381316 97 10472ft 208kts
17-Jan-16 18:46 36.005057 -114.314074 97 10468ft 208kts
17-Jan-16 18:47 35.997057 -114.243336 97 10469ft 207kts
17-Jan-16 18:48 35.989149 -114.172570 97 10475ft 207kts
17-Jan-16 18:49 35.981477 -114.102032 97 10484ft 207kts
17-Jan-16 18:50 35.973857 -114.030504 97 10395ft 210kts
17-Jan-16 18:51 35.966415 -113.959279 97 10405ft 208kts
17-Jan-16 18:52 35.959061 -113.888520 97 10406ft 208kts
17-Jan-16 18:53 35.951698 -113.817488 97 10406ft 208kts
17-Jan-16 18:54 35.944379 -113.746684 97 10406ft 208kts
17-Jan-16 18:55 35.936847 -113.675720 97 10407ft 208kts
17-Jan-16 18:56 35.928966 -113.604952 96 10407ft 207kts
17-Jan-16 18:57 35.923288 -113.534198 92 10408ft 206kts
17-Jan-16 18:58 35.918339 -113.463730 92 10408ft 205kts
17-Jan-16 18:59 35.913100 -113.393765 92 10408ft 204kts
17-Jan-16 19:00 35.907898 -113.327322 93 10406ft 203kts
17-Jan-16 19:01 35.902357 -113.258445 93 10410ft 201kts
17-Jan-16 19:02 35.897136 -113.194037 93 10429ft 200kts
17-Jan-16 19:03 35.891590 -113.124682 93 10455ft 206kts
17-Jan-16 19:04 35.885966 -113.053829 93 10478ft 208kts
17-Jan-16 19:05 35.880353 -112.982633 92 10487ft 208kts
17-Jan-16 19:06 35.874784 -112.911651 92 10487ft 208kts
17-Jan-16 19:07 35.869212 -112.840441 92 10487ft 208kts
17-Jan-16 19:08 35.863711 -112.769980 92 10487ft 207kts
17-Jan-16 19:09 35.858196 -112.699127 92 10487ft 207kts
17-Jan-16 19:10 35.852700 -112.628291 92 10487ft 207kts
17-Jan-16 19:11 35.847245 -112.557644 92 10488ft 207kts
17-Jan-16 19:12 35.840769 -112.486831 95 10488ft 207kts
17-Jan-16 19:13 35.832535 -112.416378 95 10488ft 207kts
17-Jan-16 19:14 35.824489 -112.347451 96 10488ft 207kts
17-Jan-16 19:15 35.816381 -112.277525 95 10486ft 207kts
17-Jan-16 19:16 35.807239 -112.207166 99 10486ft 208kts
17-Jan-16 19:17 35.793177 -112.137896 103 10486ft 208kts
17-Jan-16 19:18 35.779774 -112.068724 99 10487ft 208kts
17-Jan-16 19:19 35.767945 -111.998926 99 10487ft 208kts
17-Jan-16 19:20 35.756125 -111.929046 99 10478ft 208kts
17-Jan-16 19:21 35.744330 -111.859206 99 10478ft 208kts
17-Jan-16 19:22 35.734926 -111.789079 95 10479ft 207kts
17-Jan-16 19:23 35.727269 -111.718409 94 10481ft 208kts
17-Jan-16 19:24 35.720218 -111.647667 94 10484ft 208kts
17-Jan-16 19:25 35.713150 -111.576435 94 10486ft 209kts
17-Jan-16 19:26 35.706114 -111.505234 94 10487ft 210kts
17-Jan-16 19:27 35.699094 -111.433923 94 10488ft 210kts
17-Jan-16 19:28 35.692076 -111.362405 94 10488ft 210kts
17-Jan-16 19:29 35.686512 -111.304472 94 10478ft 210kts
17-Jan-16 19:30 35.680012 -111.232797 94 10464ft 210kts
17-Jan-16 19:31 35.673979 -111.161276 94 10451ft 211kts
17-Jan-16 19:32 35.668366 -111.089309 94 10441ft 210kts
17-Jan-16 19:33 35.662891 -111.017463 94 10441ft 210kts
17-Jan-16 19:34 35.656730 -110.945745 101 10443ft 210kts
17-Jan-16 19:35 35.644126 -110.875382 102 10442ft 211kts
17-Jan-16 19:36 35.631277 -110.804510 100 10442ft 212kts
17-Jan-16 19:37 35.618454 -110.732993 99 10442ft 215kts
17-Jan-16 19:38 35.604976 -110.660983 97 10443ft 216kts
17-Jan-16 19:39 35.591340 -110.589168 97 10443ft 216kts
17-Jan-16 19:40 35.579046 -110.516938 94 10443ft 215kts
17-Jan-16 19:41 35.571521 -110.444325 90 10443ft 214kts
17-Jan-16 19:42 35.565065 -110.371682 88 10444ft 213kts
17-Jan-16 19:43 35.560048 -110.301189 89 10440ft 213kts
17-Jan-16 19:44 35.554925 -110.228598 89 10440ft 213kts
17-Jan-16 19:45 35.549827 -110.156085 89 10441ft 213kts
17-Jan-16 19:46 35.543084 -110.083765 93 10448ft 213kts
17-Jan-16 19:47 35.532645 -110.012476 93 10457ft 210kts
17-Jan-16 19:48 35.521861 -109.942120 93 10465ft 208kts
17-Jan-16 19:49 35.510909 -109.872483 93 10468ft 207kts
17-Jan-16 19:50 35.500042 -109.803193 93 10468ft 207kts
17-Jan-16 19:51 35.489152 -109.733866 93 10514ft 206kts
17-Jan-16 19:52 35.478267 -109.664646 93 10516ft 206kts
17-Jan-16 19:53 35.467363 -109.595201 93 10516ft 206kts
17-Jan-16 19:54 35.456486 -109.525750 93 10516ft 206kts
17-Jan-16 19:55 35.446927 -109.456198 91 10516ft 206kts
17-Jan-16 19:56 35.439341 -109.386743 89 10516ft 205kts
17-Jan-16 19:57 35.432633 -109.319909 89 10515ft 205kts
17-Jan-16 19:58 35.425375 -109.250300 90 10515ft 205kts
17-Jan-16 19:59 35.417988 -109.180696 89 10515ft 205kts
17-Jan-16 20:00 35.411096 -109.110991 89 10512ft 205kts
17-Jan-16 20:01 35.404272 -109.041584 89 10510ft 205kts
17-Jan-16 20:02 35.397422 -108.971630 89 10507ft 205kts
17-Jan-16 20:03 35.387744 -108.902209 95 10507ft 208kts
17-Jan-16 20:04 35.374556 -108.832851 96 10507ft 208kts
17-Jan-16 20:05 35.361168 -108.763540 96 10507ft 208kts
17-Jan-16 20:06 35.347854 -108.694369 95 10507ft 208kts
17-Jan-16 20:07 35.335651 -108.625318 93 10515ft 207kts
17-Jan-16 20:08 35.324784 -108.555885 92 10517ft 206kts
17-Jan-16 20:09 35.315279 -108.486345 91 10517ft 206kts
17-Jan-16 20:10 35.305842 -108.416927 91 10521ft 207kts
17-Jan-16 20:11 35.296488 -108.347784 92 10527ft 207kts
17-Jan-16 20:12 35.289123 -108.280004 90 10530ft 207kts
17-Jan-16 20:13 35.281669 -108.209619 90 10534ft 208kts
17-Jan-16 20:14 35.274283 -108.139442 90 10534ft 208kts
17-Jan-16 20:15 35.266620 -108.069138 91 10535ft 208kts
17-Jan-16 20:16 35.258311 -107.998545 91 10535ft 208kts
17-Jan-16 20:17 35.249764 -107.928082 90 10535ft 209kts
17-Jan-16 20:18 35.242404 -107.857399 77 10488ft 205kts
17-Jan-16 20:19 35.248088 -107.788525 73 10543ft 202kts
17-Jan-16 20:20 35.220395 -107.727446 134 10546ft 229kts
17-Jan-16 20:21 35.172628 -107.675298 134 10546ft 230kts
17-Jan-16 20:22 35.132645 -107.631737 134 10547ft 230kts
17-Jan-16 20:23 35.084950 -107.579772 134 10547ft 230kts
17-Jan-16 20:24 35.035744 -107.524722 133 9394ft 255kts
17-Jan-16 20:25 34.999965 -107.458793 93 8375ft 227kts
17-Jan-16 20:26 34.987431 -107.386391 94 7993ft 204kts
17-Jan-16 20:27 34.975988 -107.322190 94 7985ft 198kts
17-Jan-16 20:28 34.964024 -107.256830 94 7978ft 196kts
17-Jan-16 20:29 34.952094 -107.192090 94 7978ft 196kts
17-Jan-16 20:30 34.940140 -107.127131 94 7978ft 196kts
17-Jan-16 20:31 34.928233 -107.062302 94 7978ft 196kts
17-Jan-16 20:32 34.916331 -106.997360 94 7978ft 196kts
17-Jan-16 20:33 34.904510 -106.932690 94 7976ft 196kts
17-Jan-16 20:34 34.893347 -106.871462 94 7966ft 195kts
17-Jan-16 20:35 34.881550 -106.806721 94 7963ft 195kts
17-Jan-16 20:36 34.891378 -106.753290 42 7966ft 169kts
17-Jan-16 20:37 34.930973 -106.722455 22 7271ft 182kts
17-Jan-16 20:38 34.972396 -106.688535 38 5925ft 176kts
17-Jan-16 20:39 35.002695 -106.653271 39 5800ft 123kts
17-Jan-16 20:40 35.021842 -106.630964 34 5449ft 84kts
17-Jan-16 20:41 35.029213 -106.623261 301 5356ft 0kts
17-Jan-16 20:42 35.029213 -106.623261 301 5356ft 0kts
17-Jan-16 20:43 35.029213 -106.623261 301 5356ft 0kts
17-Jan-16 20:44 35.029213 -106.623261 301 5356ft 0kts
17-Jan-16 20:45 35.029213 -106.623261 301 5356ft 0kts
17-Jan-16 20:46 35.029213 -106.623261 301 5356ft 0kts
17-Jan-16 20:47 35.029213 -106.623261 301 5356ft 0kts
17-Jan-16 20:48 35.029213 -106.623261 301 5356ft 0kts

Navigation Log

Ident Type
Flight plan parsing failed, navigation log unavailable